sensor_id;sensor_type;location;lat;lon;timestamp;pressure;altitude;pressure_sealevel;temperature;humidity
47166;BME280;32930;51.112;13.762;2023-01-09T01:17:49;97804.72;;;7.76;83.86
47166;BME280;32930;51.112;13.762;2023-01-09T01:20:17;97812.22;;;7.86;83.47
47166;BME280;32930;51.112;13.762;2023-01-09T01:22:43;97802.19;;;7.73;84.17
47166;BME280;32930;51.112;13.762;2023-01-09T01:25:10;97791.22;;;7.64;84.29
47166;BME280;32930;51.112;13.762;2023-01-09T01:27:37;97793.63;;;7.75;83.81
47166;BME280;32930;51.112;13.762;2023-01-09T01:30:03;97786.16;;;7.61;83.63
47166;BME280;32930;51.112;13.762;2023-01-09T01:32:29;97787.78;;;7.65;84.39
47166;BME280;32930;51.112;13.762;2023-01-09T01:34:54;97781.84;;;7.66;84.60
47166;BME280;32930;51.112;13.762;2023-01-09T01:37:20;97779.38;;;7.60;83.93
47166;BME280;32930;51.112;13.762;2023-01-09T01:39:47;97775.09;;;7.59;83.64
47166;BME280;32930;51.112;13.762;2023-01-09T01:42:13;97776.56;;;7.80;83.25
47166;BME280;32930;51.112;13.762;2023-01-09T01:47:53;97765.53;;;7.78;82.73
47166;BME280;32930;51.112;13.762;2023-01-09T01:53:13;97767.41;;;7.64;82.90
47166;BME280;32930;51.112;13.762;2023-01-09T01:55:51;97761.44;;;7.66;83.39
47166;BME280;32930;51.112;13.762;2023-01-09T01:58:21;97757.25;;;7.59;83.93
47166;BME280;32930;51.112;13.762;2023-01-09T02:00:47;97762.34;;;7.59;84.27
47166;BME280;32930;51.112;13.762;2023-01-09T02:03:19;97749.56;;;7.62;83.59
47166;BME280;32930;51.112;13.762;2023-01-09T02:05:45;97752.00;;;7.73;83.98
47166;BME280;32930;51.112;13.762;2023-01-09T02:08:11;97740.03;;;7.77;83.48
47166;BME280;32930;51.112;13.762;2023-01-09T02:10:38;97746.91;;;7.72;82.98
47166;BME280;32930;51.112;13.762;2023-01-09T02:13:05;97737.56;;;7.69;83.47
47166;BME280;32930;51.112;13.762;2023-01-09T02:15:59;97733.94;;;7.87;83.15
47166;BME280;32930;51.112;13.762;2023-01-09T02:18:50;97724.66;;;7.83;82.72
47166;BME280;32930;51.112;13.762;2023-01-09T02:36:17;97699.28;;;7.69;82.25
47166;BME280;32930;51.112;13.762;2023-01-09T02:42:02;97699.50;;;7.54;82.99
47166;BME280;32930;51.112;13.762;2023-01-09T02:44:32;97693.41;;;7.64;82.61
47166;BME280;32930;51.112;13.762;2023-01-09T02:49:56;97699.03;;;7.87;81.42
47166;BME280;32930;51.112;13.762;2023-01-09T02:52:46;97690.75;;;7.72;81.85
47166;BME280;32930;51.112;13.762;2023-01-09T03:04:12;97700.06;;;7.76;83.96
47166;BME280;32930;51.112;13.762;2023-01-09T03:06:59;97692.28;;;7.83;85.06
47166;BME280;32930;51.112;13.762;2023-01-09T03:09:32;97689.81;;;7.79;85.10
47166;BME280;32930;51.112;13.762;2023-01-09T03:12:08;97690.66;;;7.78;86.36
47166;BME280;32930;51.112;13.762;2023-01-09T03:14:41;97690.59;;;7.84;87.05
47166;BME280;32930;51.112;13.762;2023-01-09T03:17:13;97689.75;;;7.85;88.42
47166;BME280;32930;51.112;13.762;2023-01-09T03:19:44;97686.22;;;7.92;88.39
47166;BME280;32930;51.112;13.762;2023-01-09T03:22:11;97689.03;;;7.72;89.59
47166;BME280;32930;51.112;13.762;2023-01-09T03:24:36;97684.13;;;7.58;91.16
47166;BME280;32930;51.112;13.762;2023-01-09T03:27:08;97677.44;;;7.50;92.39
47166;BME280;32930;51.112;13.762;2023-01-09T03:29:34;97668.22;;;7.41;92.93
47166;BME280;32930;51.112;13.762;2023-01-09T03:31:59;97667.97;;;7.56;93.57
47166;BME280;32930;51.112;13.762;2023-01-09T03:34:25;97663.88;;;7.46;94.28
47166;BME280;32930;51.112;13.762;2023-01-09T03:36:51;97660.59;;;7.38;94.60
47166;BME280;32930;51.112;13.762;2023-01-09T03:39:16;97656.09;;;7.55;94.51
47166;BME280;32930;51.112;13.762;2023-01-09T03:41:42;97656.84;;;7.63;94.67
47166;BME280;32930;51.112;13.762;2023-01-09T03:44:07;97650.16;;;7.55;94.88
47166;BME280;32930;51.112;13.762;2023-01-09T03:46:33;97651.78;;;7.59;96.07
47166;BME280;32930;51.112;13.762;2023-01-09T03:48:58;97655.22;;;7.56;95.94
47166;BME280;32930;51.112;13.762;2023-01-09T03:51:24;97642.72;;;7.39;97.27
47166;BME280;32930;51.112;13.762;2023-01-09T03:53:49;97645.22;;;7.44;98.30
47166;BME280;32930;51.112;13.762;2023-01-09T03:56:15;97624.66;;;7.53;97.92
47166;BME280;32930;51.112;13.762;2023-01-09T03:58:40;97623.94;;;7.45;97.68
47166;BME280;32930;51.112;13.762;2023-01-09T04:01:06;97628.88;;;7.57;98.13
47166;BME280;32930;51.112;13.762;2023-01-09T04:03:37;97624.59;;;7.56;99.05
47166;BME280;32930;51.112;13.762;2023-01-09T04:06:04;97619.34;;;7.69;98.32
47166;BME280;32930;51.112;13.762;2023-01-09T07:52:48;97622.88;;;7.60;86.62
47166;BME280;32930;51.112;13.762;2023-01-09T07:55:14;97623.78;;;7.57;87.35
47166;BME280;32930;51.112;13.762;2023-01-09T08:04:23;97630.16;;;7.86;86.37
47166;BME280;32930;51.112;13.762;2023-01-09T08:06:49;97637.72;;;7.92;86.83
47166;BME280;32930;51.112;13.762;2023-01-09T08:09:15;97640.28;;;7.92;85.92
47166;BME280;32930;51.112;13.762;2023-01-09T08:11:41;97633.47;;;7.93;86.38
47166;BME280;32930;51.112;13.762;2023-01-09T08:14:07;97643.63;;;7.96;85.70
47166;BME280;32930;51.112;13.762;2023-01-09T08:16:32;97638.38;;;8.03;85.93
47166;BME280;32930;51.112;13.762;2023-01-09T08:19:01;97641.78;;;8.04;85.86
47166;BME280;32930;51.112;13.762;2023-01-09T08:21:27;97639.16;;;8.08;85.16
47166;BME280;32930;51.112;13.762;2023-01-09T08:23:58;97635.13;;;7.95;85.12
47166;BME280;32930;51.112;13.762;2023-01-09T08:26:24;97642.56;;;8.10;85.76
47166;BME280;32930;51.112;13.762;2023-01-09T08:28:49;97640.94;;;8.05;86.22
47166;BME280;32930;51.112;13.762;2023-01-09T08:31:22;97648.47;;;8.12;85.19
47166;BME280;32930;51.112;13.762;2023-01-09T08:33:48;97658.75;;;8.08;83.99
47166;BME280;32930;51.112;13.762;2023-01-09T08:36:14;97656.09;;;8.14;85.48
47166;BME280;32930;51.112;13.762;2023-01-09T08:38:40;97665.50;;;8.13;87.07
47166;BME280;32930;51.112;13.762;2023-01-09T08:47:08;97666.00;;;8.34;84.31
47166;BME280;32930;51.112;13.762;2023-01-09T08:49:40;97671.16;;;8.32;84.40
47166;BME280;32930;51.112;13.762;2023-01-09T08:52:20;97673.91;;;8.20;87.99
47166;BME280;32930;51.112;13.762;2023-01-09T08:54:56;97681.56;;;8.20;89.82
47166;BME280;32930;51.112;13.762;2023-01-09T08:57:25;97678.75;;;8.35;89.15
47166;BME280;32930;51.112;13.762;2023-01-09T09:00:05;97676.97;;;8.42;88.09
47166;BME280;32930;51.112;13.762;2023-01-09T09:02:31;97689.66;;;8.48;86.53
47166;BME280;32930;51.112;13.762;2023-01-09T09:04:59;97692.31;;;8.41;88.27
47166;BME280;32930;51.112;13.762;2023-01-09T09:07:24;97685.66;;;8.29;90.31
47166;BME280;32930;51.112;13.762;2023-01-09T09:09:58;97683.97;;;8.29;90.84
47166;BME280;32930;51.112;13.762;2023-01-09T09:12:24;97688.03;;;8.41;90.89
47166;BME280;32930;51.112;13.762;2023-01-09T09:14:53;97685.50;;;8.41;91.12
47166;BME280;32930;51.112;13.762;2023-01-09T09:18:02;97689.72;;;8.44;91.17
47166;BME280;32930;51.112;13.762;2023-01-09T09:20:33;97683.56;;;8.54;90.60
47166;BME280;32930;51.112;13.762;2023-01-09T09:23:19;97682.72;;;8.53;89.77
47166;BME280;32930;51.112;13.762;2023-01-09T09:25:54;97692.53;;;8.78;88.02
47166;BME280;32930;51.112;13.762;2023-01-09T09:28:22;97694.63;;;8.57;89.06
47166;BME280;32930;51.112;13.762;2023-01-09T09:33:57;97704.59;;;8.71;89.15
47166;BME280;32930;51.112;13.762;2023-01-09T09:39:09;97704.38;;;8.82;89.68
47166;BME280;32930;51.112;13.762;2023-01-09T09:45:05;97716.38;;;8.78;90.62
47166;BME280;32930;51.112;13.762;2023-01-09T09:53:34;97717.91;;;8.89;91.86
47166;BME280;32930;51.112;13.762;2023-01-09T09:56:11;97714.34;;;8.99;92.27
47166;BME280;32930;51.112;13.762;2023-01-09T09:58:46;97720.19;;;9.04;92.80
47166;BME280;32930;51.112;13.762;2023-01-09T10:01:19;97717.34;;;9.21;90.66
47166;BME280;32930;51.112;13.762;2023-01-09T10:03:57;97715.00;;;9.09;93.40
47166;BME280;32930;51.112;13.762;2023-01-09T10:06:41;97712.44;;;9.09;94.99
47166;BME280;32930;51.112;13.762;2023-01-09T10:09:22;97709.91;;;9.07;95.06
47166;BME280;32930;51.112;13.762;2023-01-09T10:12:06;97716.16;;;8.92;96.46
47166;BME280;32930;51.112;13.762;2023-01-09T10:14:36;97715.84;;;9.08;97.09
47166;BME280;32930;51.112;13.762;2023-01-09T10:17:11;97715.91;;;9.06;97.80
47166;BME280;32930;51.112;13.762;2023-01-09T10:28:14;97724.56;;;8.97;99.95
47166;BME280;32930;51.112;13.762;2023-01-09T10:30:58;97735.38;;;9.15;99.37
47166;BME280;32930;51.112;13.762;2023-01-09T10:39:32;97758.38;;;9.15;100.00
47166;BME280;32930;51.112;13.762;2023-01-09T10:47:31;97772.69;;;9.25;99.51
47166;BME280;32930;51.112;13.762;2023-01-09T10:50:01;97772.75;;;9.20;98.63
47166;BME280;32930;51.112;13.762;2023-01-09T10:52:36;97771.34;;;9.05;99.97
47166;BME280;32930;51.112;13.762;2023-01-09T10:58:19;97768.81;;;9.02;100.00
47166;BME280;32930;51.112;13.762;2023-01-09T11:00:47;97778.06;;;9.10;99.80
47166;BME280;32930;51.112;13.762;2023-01-09T11:03:16;97772.28;;;8.98;99.89
47166;BME280;32930;51.112;13.762;2023-01-09T11:05:43;97780.53;;;9.16;99.37
47166;BME280;32930;51.112;13.762;2023-01-09T11:10:51;97794.25;;;9.12;100.00
47166;BME280;32930;51.112;13.762;2023-01-09T11:13:21;97799.09;;;9.25;98.92
47166;BME280;32930;51.112;13.762;2023-01-09T11:16:06;97799.94;;;9.27;98.91
47166;BME280;32930;51.112;13.762;2023-01-09T11:18:37;97800.00;;;9.24;100.00
47166;BME280;32930;51.112;13.762;2023-01-09T11:21:34;97804.72;;;9.46;99.14
47166;BME280;32930;51.112;13.762;2023-01-09T11:26:46;97806.31;;;9.51;98.06
47166;BME280;32930;51.112;13.762;2023-01-09T11:29:18;97807.78;;;9.65;96.89
47166;BME280;32930;51.112;13.762;2023-01-09T11:34:51;97812.34;;;9.47;95.67
47166;BME280;32930;51.112;13.762;2023-01-09T11:37:26;97821.03;;;9.39;93.77
47166;BME280;32930;51.112;13.762;2023-01-09T11:39:54;97830.94;;;9.59;91.48
47166;BME280;32930;51.112;13.762;2023-01-09T11:42:24;97825.97;;;9.49;92.51
47166;BME280;32930;51.112;13.762;2023-01-09T11:45:29;97828.81;;;9.34;92.92
47166;BME280;32930;51.112;13.762;2023-01-09T11:47:57;97823.66;;;9.36;91.40
47166;BME280;32930;51.112;13.762;2023-01-09T11:50:28;97821.94;;;9.36;90.76
47166;BME280;32930;51.112;13.762;2023-01-09T11:53:13;97824.16;;;9.55;89.48
47166;BME280;32930;51.112;13.762;2023-01-09T11:55:41;97827.81;;;9.41;89.53
47166;BME280;32930;51.112;13.762;2023-01-09T11:58:13;97817.53;;;9.44;86.15
47166;BME280;32930;51.112;13.762;2023-01-09T12:03:40;97830.13;;;9.55;84.37
47166;BME280;32930;51.112;13.762;2023-01-09T12:08:59;97827.22;;;9.73;83.26
47166;BME280;32930;51.112;13.762;2023-01-09T12:17:15;97822.03;;;9.78;81.33
47166;BME280;32930;51.112;13.762;2023-01-09T12:31:02;97849.13;;;9.88;80.27
47166;BME280;32930;51.112;13.762;2023-01-09T12:36:43;97830.19;;;9.97;83.42
47166;BME280;32930;51.112;13.762;2023-01-09T12:39:38;97845.56;;;9.95;78.75
47166;BME280;32930;51.112;13.762;2023-01-09T12:45:31;97870.56;;;9.83;79.08
47166;BME280;32930;51.112;13.762;2023-01-09T12:53:25;97881.69;;;9.82;79.17
47166;BME280;32930;51.112;13.762;2023-01-09T12:56:05;97862.44;;;9.62;79.91
47166;BME280;32930;51.112;13.762;2023-01-09T12:58:41;97866.44;;;9.75;78.61
47166;BME280;32930;51.112;13.762;2023-01-09T13:01:14;97864.09;;;9.65;79.64
47166;BME280;32930;51.112;13.762;2023-01-09T13:06:23;97879.41;;;9.66;81.50
47166;BME280;32930;51.112;13.762;2023-01-09T13:11:41;97894.16;;;9.54;80.54
47166;BME280;32930;51.112;13.762;2023-01-09T13:16:45;97898.16;;;9.68;79.18
47166;BME280;32930;51.112;13.762;2023-01-09T13:21:51;97894.09;;;9.57;77.76
47166;BME280;32930;51.112;13.762;2023-01-09T13:24:26;97884.75;;;9.54;79.04
47166;BME280;32930;51.112;13.762;2023-01-09T13:27:06;97889.19;;;9.44;79.57
47166;BME280;32930;51.112;13.762;2023-01-09T13:34:44;97892.16;;;9.69;80.06
47166;BME280;32930;51.112;13.762;2023-01-09T13:37:29;97888.03;;;9.61;78.93
47166;BME280;32930;51.112;13.762;2023-01-09T13:39:59;97894.25;;;9.47;79.80
47166;BME280;32930;51.112;13.762;2023-01-09T13:42:27;97901.97;;;9.46;80.00
47166;BME280;32930;51.112;13.762;2023-01-09T13:47:42;97911.19;;;9.56;80.19
47166;BME280;32930;51.112;13.762;2023-01-09T13:52:41;97920.44;;;9.63;79.05
47166;BME280;32930;51.112;13.762;2023-01-09T13:57:37;97930.25;;;9.86;73.99
47166;BME280;32930;51.112;13.762;2023-01-09T14:35:28;97977.56;;;9.67;76.65
47166;BME280;32930;51.112;13.762;2023-01-09T14:43:50;97985.47;;;9.53;79.38
47166;BME280;32930;51.112;13.762;2023-01-09T14:46:21;97991.53;;;9.47;80.13
47166;BME280;32930;51.112;13.762;2023-01-09T14:49:05;97999.94;;;9.54;81.31
47166;BME280;32930;51.112;13.762;2023-01-09T14:51:37;97988.16;;;9.44;80.87
47166;BME280;32930;51.112;13.762;2023-01-09T14:54:33;97991.28;;;9.63;78.81
47166;BME280;32930;51.112;13.762;2023-01-09T14:57:02;97998.81;;;9.70;76.50
47166;BME280;32930;51.112;13.762;2023-01-09T15:00:20;98000.97;;;9.44;81.02
47166;BME280;32930;51.112;13.762;2023-01-09T15:02:47;98013.81;;;9.39;81.84
47166;BME280;32930;51.112;13.762;2023-01-09T15:05:18;98006.81;;;9.50;82.07
47166;BME280;32930;51.112;13.762;2023-01-09T15:08:02;98017.16;;;9.44;80.38
47166;BME280;32930;51.112;13.762;2023-01-09T15:10:31;98008.47;;;9.56;79.38
47166;BME280;32930;51.112;13.762;2023-01-09T15:13:06;98019.81;;;9.40;80.76
47166;BME280;32930;51.112;13.762;2023-01-09T15:15:34;98009.22;;;9.61;79.02
47166;BME280;32930;51.112;13.762;2023-01-09T15:18:05;98015.25;;;9.59;78.61
47166;BME280;32930;51.112;13.762;2023-01-09T15:20:33;98008.50;;;9.51;79.14
47166;BME280;32930;51.112;13.762;2023-01-09T15:23:00;98020.69;;;9.37;80.49
47166;BME280;32930;51.112;13.762;2023-01-09T15:25:29;98029.91;;;9.49;78.50
47166;BME280;32930;51.112;13.762;2023-01-09T15:27:57;98028.84;;;9.61;77.67
47166;BME280;32930;51.112;13.762;2023-01-09T15:30:30;98030.00;;;9.43;80.89
47166;BME280;32930;51.112;13.762;2023-01-09T15:33:36;98035.72;;;9.57;78.20
47166;BME280;32930;51.112;13.762;2023-01-09T15:36:19;98028.13;;;9.52;77.70
47166;BME280;32930;51.112;13.762;2023-01-09T15:38:54;98027.56;;;9.34;78.83
47166;BME280;32930;51.112;13.762;2023-01-09T15:41:29;98041.03;;;9.45;78.19
47166;BME280;32930;51.112;13.762;2023-01-09T15:44:40;98039.44;;;9.36;78.65
47166;BME280;32930;51.112;13.762;2023-01-09T15:47:15;98042.34;;;9.15;79.93
47166;BME280;32930;51.112;13.762;2023-01-09T15:49:46;98033.03;;;9.08;82.10
47166;BME280;32930;51.112;13.762;2023-01-09T15:52:13;98038.28;;;8.97;82.15
47166;BME280;32930;51.112;13.762;2023-01-09T15:54:43;98045.97;;;8.97;82.71
47166;BME280;32930;51.112;13.762;2023-01-09T15:57:27;98049.44;;;8.91;81.64
47166;BME280;32930;51.112;13.762;2023-01-09T16:00:34;98045.13;;;8.96;82.37
47166;BME280;32930;51.112;13.762;2023-01-09T16:03:25;98044.50;;;8.77;82.58
47166;BME280;32930;51.112;13.762;2023-01-09T16:06:12;98047.69;;;8.96;81.96
47166;BME280;32930;51.112;13.762;2023-01-09T16:08:49;98059.56;;;9.00;81.13
47166;BME280;32930;51.112;13.762;2023-01-09T16:11:38;98057.25;;;8.80;82.94
47166;BME280;32930;51.112;13.762;2023-01-09T16:16:52;98075.75;;;9.02;80.79
47166;BME280;32930;51.112;13.762;2023-01-09T16:19:31;98080.78;;;9.09;80.15
47166;BME280;32930;51.112;13.762;2023-01-09T16:25:27;98077.78;;;8.73;81.56
47166;BME280;32930;51.112;13.762;2023-01-09T16:28:35;98071.84;;;8.69;82.96
47166;BME280;32930;51.112;13.762;2023-01-09T16:34:14;98088.34;;;8.42;84.29
47166;BME280;32930;51.112;13.762;2023-01-09T16:37:06;98073.72;;;8.55;84.29
47166;BME280;32930;51.112;13.762;2023-01-09T16:48:23;98082.41;;;8.35;85.51
47166;BME280;32930;51.112;13.762;2023-01-09T16:50:54;98078.28;;;8.21;85.05
47166;BME280;32930;51.112;13.762;2023-01-09T16:53:26;98085.94;;;8.19;84.78
47166;BME280;32930;51.112;13.762;2023-01-09T16:59:02;98090.84;;;8.47;82.54
47166;BME280;32930;51.112;13.762;2023-01-09T17:01:27;98104.41;;;8.53;82.49
47166;BME280;32930;51.112;13.762;2023-01-09T17:03:53;98098.66;;;8.27;83.74
47166;BME280;32930;51.112;13.762;2023-01-09T17:09:26;98103.03;;;8.14;84.63
47166;BME280;32930;51.112;13.762;2023-01-09T17:11:54;98098.91;;;8.01;85.32
47166;BME280;32930;51.112;13.762;2023-01-09T17:14:20;98101.41;;;8.04;85.65
47166;BME280;32930;51.112;13.762;2023-01-09T17:16:55;98113.34;;;8.05;85.42
47166;BME280;32930;51.112;13.762;2023-01-09T17:19:23;98108.03;;;8.25;84.02
47166;BME280;32930;51.112;13.762;2023-01-09T17:21:55;98114.31;;;7.84;84.98
47166;BME280;32930;51.112;13.762;2023-01-09T17:24:45;98114.06;;;8.16;85.07
47166;BME280;32930;51.112;13.762;2023-01-09T17:27:38;98122.81;;;7.89;85.52
47166;BME280;32930;51.112;13.762;2023-01-09T17:30:44;98118.34;;;8.17;84.13
47166;BME280;32930;51.112;13.762;2023-01-09T17:33:19;98124.53;;;7.87;85.57
47166;BME280;32930;51.112;13.762;2023-01-09T17:35:47;98131.41;;;7.79;86.28
47166;BME280;32930;51.112;13.762;2023-01-09T17:38:16;98134.88;;;7.62;85.68
47166;BME280;32930;51.112;13.762;2023-01-09T17:40:54;98134.97;;;7.52;85.71
47166;BME280;32930;51.112;13.762;2023-01-09T17:43:29;98137.38;;;7.72;86.03
47166;BME280;32930;51.112;13.762;2023-01-09T17:49:28;98142.50;;;7.69;86.28
47166;BME280;32930;51.112;13.762;2023-01-09T17:51:57;98151.84;;;7.73;86.25
47166;BME280;32930;51.112;13.762;2023-01-09T17:54:36;98150.28;;;7.46;86.89
47166;BME280;32930;51.112;13.762;2023-01-09T17:59:49;98157.94;;;7.49;87.16
47166;BME280;32930;51.112;13.762;2023-01-09T18:02:16;98169.81;;;7.53;86.70
47166;BME280;32930;51.112;13.762;2023-01-09T18:04:42;98181.72;;;7.60;87.13
47166;BME280;32930;51.112;13.762;2023-01-09T18:07:13;98178.38;;;7.47;87.49
47166;BME280;32930;51.112;13.762;2023-01-09T18:12:33;98175.81;;;7.47;87.17
47166;BME280;32930;51.112;13.762;2023-01-09T18:15:02;98178.34;;;7.49;87.68
47166;BME280;32930;51.112;13.762;2023-01-09T18:17:27;98179.16;;;7.57;87.63
47166;BME280;32930;51.112;13.762;2023-01-09T18:20:02;98188.44;;;7.70;86.76
47166;BME280;32930;51.112;13.762;2023-01-09T18:23:08;98175.66;;;7.73;86.93
47166;BME280;32930;51.112;13.762;2023-01-09T18:26:03;98188.38;;;7.82;87.77
47166;BME280;32930;51.112;13.762;2023-01-09T18:28:54;98180.59;;;8.02;85.04
47166;BME280;32930;51.112;13.762;2023-01-09T18:31:32;98182.44;;;7.79;87.07
47166;BME280;32930;51.112;13.762;2023-01-09T18:34:19;98185.81;;;7.88;87.73
47166;BME280;32930;51.112;13.762;2023-01-09T18:37:14;98179.75;;;7.97;86.75
47166;BME280;32930;51.112;13.762;2023-01-09T18:39:42;98191.72;;;7.95;87.36
47166;BME280;32930;51.112;13.762;2023-01-09T18:42:17;98186.56;;;8.01;87.29
47166;BME280;32930;51.112;13.762;2023-01-09T18:45:01;98182.38;;;7.89;88.00
47166;BME280;32930;51.112;13.762;2023-01-09T18:47:35;98179.78;;;7.99;88.12
47166;BME280;32930;51.112;13.762;2023-01-09T18:50:16;98178.00;;;8.08;85.43
47166;BME280;32930;51.112;13.762;2023-01-09T18:52:55;98176.34;;;8.04;86.17
47166;BME280;32930;51.112;13.762;2023-01-09T18:58:39;98177.75;;;8.44;80.78
47166;BME280;32930;51.112;13.762;2023-01-09T19:01:20;98182.06;;;8.39;81.73
47166;BME280;32930;51.112;13.762;2023-01-09T19:06:55;98176.03;;;8.46;80.54
47166;BME280;32930;51.112;13.762;2023-01-09T19:09:36;98179.63;;;8.20;81.70
47166;BME280;32930;51.112;13.762;2023-01-09T19:12:04;98182.84;;;8.48;81.78
47166;BME280;32930;51.112;13.762;2023-01-09T19:14:30;98183.63;;;8.53;79.15
47166;BME280;32930;51.112;13.762;2023-01-09T19:16:56;98189.66;;;8.46;81.10
47166;BME280;32930;51.112;13.762;2023-01-09T19:19:39;98193.06;;;8.48;80.54
47166;BME280;32930;51.112;13.762;2023-01-09T19:22:11;98194.84;;;8.35;81.53
47166;BME280;32930;51.112;13.762;2023-01-09T19:24:39;98209.25;;;8.46;81.86
47166;BME280;32930;51.112;13.762;2023-01-09T19:27:06;98211.72;;;8.56;80.91
47166;BME280;32930;51.112;13.762;2023-01-09T19:29:55;98215.94;;;8.62;78.37
47166;BME280;32930;51.112;13.762;2023-01-09T19:32:26;98217.59;;;8.68;78.67
47166;BME280;32930;51.112;13.762;2023-01-09T19:35:12;98225.44;;;8.45;79.86
47166;BME280;32930;51.112;13.762;2023-01-09T19:37:41;98226.31;;;8.38;81.46
47166;BME280;32930;51.112;13.762;2023-01-09T19:40:15;98232.13;;;8.61;79.46
47166;BME280;32930;51.112;13.762;2023-01-09T19:42:56;98232.16;;;8.56;78.80
47166;BME280;32930;51.112;13.762;2023-01-09T19:45:25;98240.56;;;8.72;78.33
47166;BME280;32930;51.112;13.762;2023-01-09T19:47:50;98245.66;;;8.72;78.28
47166;BME280;32930;51.112;13.762;2023-01-09T19:53:15;98245.06;;;8.43;81.57
47166;BME280;32930;51.112;13.762;2023-01-09T19:55:41;98253.53;;;8.49;80.79
47166;BME280;32930;51.112;13.762;2023-01-09T19:58:17;98271.31;;;8.62;79.60
47166;BME280;32930;51.112;13.762;2023-01-09T20:03:24;98287.41;;;8.73;79.10
47166;BME280;32930;51.112;13.762;2023-01-09T20:08:24;98288.31;;;8.69;77.52
47166;BME280;32930;51.112;13.762;2023-01-09T20:10:49;98293.50;;;8.56;79.27
47166;BME280;32930;51.112;13.762;2023-01-09T20:13:21;98301.09;;;8.69;78.31
47166;BME280;32930;51.112;13.762;2023-01-09T20:15:57;98314.66;;;8.77;78.22
47166;BME280;32930;51.112;13.762;2023-01-09T20:18:33;98330.91;;;8.71;78.15
47166;BME280;32930;51.112;13.762;2023-01-09T20:21:26;98333.44;;;8.73;77.34
47166;BME280;32930;51.112;13.762;2023-01-09T20:23:59;98331.03;;;8.50;77.97
47166;BME280;32930;51.112;13.762;2023-01-09T20:35:15;98339.44;;;8.69;77.34
47166;BME280;32930;51.112;13.762;2023-01-09T20:37:50;98342.94;;;8.55;79.88
47166;BME280;32930;51.112;13.762;2023-01-09T20:40:15;98343.66;;;8.73;77.15
47166;BME280;32930;51.112;13.762;2023-01-09T20:42:41;98342.88;;;8.65;78.06
47166;BME280;32930;51.112;13.762;2023-01-09T20:45:07;98347.09;;;8.72;77.73
47166;BME280;32930;51.112;13.762;2023-01-09T20:47:32;98353.97;;;8.61;78.35
47166;BME280;32930;51.112;13.762;2023-01-09T20:50:01;98358.16;;;8.74;77.24
47166;BME280;32930;51.112;13.762;2023-01-09T20:52:29;98363.28;;;8.74;76.88
47166;BME280;32930;51.112;13.762;2023-01-09T20:54:57;98370.13;;;8.67;77.47
47166;BME280;32930;51.112;13.762;2023-01-09T20:57:23;98364.09;;;8.76;75.72
47166;BME280;32930;51.112;13.762;2023-01-09T20:59:51;98366.72;;;8.64;76.34
47166;BME280;32930;51.112;13.762;2023-01-09T21:02:17;98365.81;;;8.77;76.66
47166;BME280;32930;51.112;13.762;2023-01-09T21:04:42;98369.25;;;8.71;76.11
47166;BME280;32930;51.112;13.762;2023-01-09T21:16:23;98370.97;;;8.68;77.54
47166;BME280;32930;51.112;13.762;2023-01-09T21:21:33;98377.75;;;8.76;76.66
47166;BME280;32930;51.112;13.762;2023-01-09T21:23:59;98381.13;;;8.78;76.91
47166;BME280;32930;51.112;13.762;2023-01-09T21:26:26;98382.00;;;8.74;76.87
47166;BME280;32930;51.112;13.762;2023-01-09T21:28:58;98393.16;;;8.63;77.99
47166;BME280;32930;51.112;13.762;2023-01-09T21:47:32;98428.06;;;8.65;78.28
47166;BME280;32930;51.112;13.762;2023-01-09T21:49:58;98432.31;;;8.69;77.28
47166;BME280;32930;51.112;13.762;2023-01-09T21:54:51;98445.16;;;8.54;78.77
47166;BME280;32930;51.112;13.762;2023-01-09T22:07:38;98453.72;;;8.38;80.79
47166;BME280;32930;51.112;13.762;2023-01-09T22:10:05;98452.06;;;8.40;81.62
47166;BME280;32930;51.112;13.762;2023-01-09T22:25:20;98445.22;;;8.31;80.72
47166;BME280;32930;51.112;13.762;2023-01-09T22:27:47;98446.09;;;8.28;80.80
47166;BME280;32930;51.112;13.762;2023-01-09T22:30:13;98441.81;;;8.35;80.34
47166;BME280;32930;51.112;13.762;2023-01-09T22:32:38;98435.06;;;8.12;80.94
47166;BME280;32930;51.112;13.762;2023-01-09T22:48:32;98473.41;;;8.00;82.47
47166;BME280;32930;51.112;13.762;2023-01-09T22:51:20;98475.97;;;8.03;82.56
47166;BME280;32930;51.112;13.762;2023-01-09T22:53:46;98480.22;;;8.09;82.64
47166;BME280;32930;51.112;13.762;2023-01-09T22:56:15;98475.13;;;8.01;82.03
47166;BME280;32930;51.112;13.762;2023-01-09T22:58:42;98477.66;;;8.06;82.90
47166;BME280;32930;51.112;13.762;2023-01-09T23:01:11;98479.34;;;8.07;82.70
47166;BME280;32930;51.112;13.762;2023-01-09T23:03:37;98479.38;;;7.96;81.83
47166;BME280;32930;51.112;13.762;2023-01-09T23:08:29;98484.50;;;7.93;82.66
47166;BME280;32930;51.112;13.762;2023-01-09T23:10:56;98487.88;;;8.00;82.83
47166;BME280;32930;51.112;13.762;2023-01-09T23:13:22;98498.94;;;7.91;82.49
47166;BME280;32930;51.112;13.762;2023-01-09T23:15:48;98498.94;;;7.91;83.41
47166;BME280;32930;51.112;13.762;2023-01-09T23:21:35;98510.88;;;7.95;83.44
47166;BME280;32930;51.112;13.762;2023-01-09T23:24:01;98512.59;;;7.90;82.92
47166;BME280;32930;51.112;13.762;2023-01-09T23:26:27;98524.47;;;7.97;81.75
47166;BME280;32930;51.112;13.762;2023-01-09T23:32:14;98522.78;;;7.99;82.82
47166;BME280;32930;51.112;13.762;2023-01-09T23:34:40;98536.44;;;7.89;82.84
47166;BME280;32930;51.112;13.762;2023-01-09T23:49:49;98537.25;;;8.11;82.13
47166;BME280;32930;51.112;13.762;2023-01-09T23:52:14;98559.41;;;8.13;82.30
47166;BME280;32930;51.112;13.762;2023-01-09T23:54:40;98556.84;;;8.10;81.92
47166;BME280;32930;51.112;13.762;2023-01-09T23:57:05;98555.97;;;8.07;82.32
